EmailTwitter


Observations de surface / Québec / EGDR

Régions: Québec | Canada | États-Unis | Europe | France | UK | Ailleurs
Station
Affichage
Infos & localisation pour EGDR | Aide pour décoder les METARs

Observations prises le 2017-09-21 à 09H50 UTC à CULDROSE (NAVY), UK (EGDR)

Etat du ciel: partiellement nuageux.

Température: 13.0 Celsius

Point de rosée: 10.0 Celsius

Humidité relative: 82%

Vents: Nord-ouest à 19 km/h ou 10 noeuds.

Pression au niveau moyen de la mer: 101.50 kilopascals.

Visibilité horizontale: 6.21 milles terrestres ou 9.94 kilomètres.

Hauteur du plafond: 7620 mètres ( 25000 pieds ).

Observation METAR:

EGDR 210950Z 30010KT 9999 FEW009 BKN250 13/10 Q1015 BLU TEMPO ST020 WHT=